KSWF/SWF METAR and TAF weather

Enter ICAO airport designator
Station Type Date Time Source
KSWF METAR 2021/05/14 23:45 UTC NOAA

KSWF 142345Z 28005KT 10SM SCT080 20/04 A3015


Station Type Date Time Source
KSWF Decoded METAR 2021/05/14 23:45 UTC NOAA

Newburgh / Stewart, NY, United States (KSWF) 41-30N 074-06W
May 14, 2021 - 07:45 PM EDT / 2021.05.14 2345 UTC
Wind: from the W (280 degrees) at 6 MPH (5 KT):0
Visibility: 10 mile(s):0
Sky conditions: partly cloudy
Temperature: 68 F (20 C)
Dew Point: 39 F (4 C)
Relative Humidity: 34%
Pressure (altimeter): 30.15 in. Hg (1020 hPa)
ob: KSWF 142345Z 28005KT 10SM SCT080 20/04 A3015
cycle: 0

Station Type Date Time Source
KSWF TAF 2021/05/14 20:58 UTC NOAA

TAF
AMD KSWF 141957Z 1420/1524 VRB05KT P6SM SCT070
FM150000 VRB03KT P6SM FEW250
FM151700 VRB05KT P6SM BKN070
AMD NOT SKED

Example: see airport list